sensor_id;sensor_type;location;lat;lon;timestamp;pressure;altitude;pressure_sealevel;temperature;humidity
49461;BME280;35355;49.198;-0.368;2023-05-01T01:55:26;101261.09;;;14.70;66.36
49461;BME280;35355;49.198;-0.368;2023-05-01T01:57:54;101258.59;;;14.69;66.53
49461;BME280;35355;49.198;-0.368;2023-05-01T02:00:20;101254.75;;;14.70;66.79
49461;BME280;35355;49.198;-0.368;2023-05-01T02:02:47;101254.75;;;14.70;66.92
49461;BME280;35355;49.198;-0.368;2023-05-01T02:05:15;101256.41;;;14.71;66.92
49461;BME280;35355;49.198;-0.368;2023-05-01T02:07:42;101250.91;;;14.71;67.07
49461;BME280;35355;49.198;-0.368;2023-05-01T02:10:11;101249.81;;;14.67;67.27
49461;BME280;35355;49.198;-0.368;2023-05-01T02:12:39;101254.75;;;14.70;67.54
49461;BME280;35355;49.198;-0.368;2023-05-01T02:15:05;101245.41;;;14.71;67.40
49461;BME280;35355;49.198;-0.368;2023-05-01T02:17:34;101244.59;;;14.70;67.61
49461;BME280;35355;49.198;-0.368;2023-05-01T02:20:00;101246.22;;;14.71;67.60
49461;BME280;35355;49.198;-0.368;2023-05-01T02:22:28;101254.75;;;14.70;67.65
49461;BME280;35355;49.198;-0.368;2023-05-01T02:24:54;101246.25;;;14.66;67.85
49461;BME280;35355;49.198;-0.368;2023-05-01T02:27:30;101248.44;;;14.59;67.58
49461;BME280;35355;49.198;-0.368;2023-05-01T02:29:56;101249.78;;;14.56;68.04
49461;BME280;35355;49.198;-0.368;2023-05-01T02:32:22;101254.47;;;14.56;68.21
49461;BME280;35355;49.198;-0.368;2023-05-01T02:34:47;101255.28;;;14.56;68.23
49461;BME280;35355;49.198;-0.368;2023-05-01T02:37:13;101254.47;;;14.56;68.36
49461;BME280;35355;49.198;-0.368;2023-05-01T02:39:38;101248.13;;;14.55;68.36
49461;BME280;35355;49.198;-0.368;2023-05-01T02:42:07;101252.00;;;14.54;68.35
49461;BME280;35355;49.198;-0.368;2023-05-01T02:44:43;101243.75;;;14.54;68.33
49461;BME280;35355;49.198;-0.368;2023-05-01T02:47:15;101248.13;;;14.55;68.37
49461;BME280;35355;49.198;-0.368;2023-05-01T02:49:42;101240.47;;;14.57;68.57
49461;BME280;35355;49.198;-0.368;2023-05-01T02:52:10;101246.75;;;14.58;68.55
49461;BME280;35355;49.198;-0.368;2023-05-01T02:54:36;101240.19;;;14.59;68.71
49461;BME280;35355;49.198;-0.368;2023-05-01T02:57:03;101248.69;;;14.57;68.76
49461;BME280;35355;49.198;-0.368;2023-05-01T02:59:29;101239.38;;;14.59;68.91
49461;BME280;35355;49.198;-0.368;2023-05-01T03:01:55;101234.97;;;14.57;68.91
49461;BME280;35355;49.198;-0.368;2023-05-01T03:04:20;101230.28;;;14.58;68.90
49461;BME280;35355;49.198;-0.368;2023-05-01T03:06:45;101233.34;;;14.62;69.03
49461;BME280;35355;49.198;-0.368;2023-05-01T03:09:11;101233.34;;;14.62;68.95
49461;BME280;35355;49.198;-0.368;2023-05-01T03:11:36;101230.59;;;14.62;69.08
49461;BME280;35355;49.198;-0.368;2023-05-01T03:14:02;101233.59;;;14.60;69.03
49461;BME280;35355;49.198;-0.368;2023-05-01T03:16:27;101218.78;;;14.61;69.19
49461;BME280;35355;49.198;-0.368;2023-05-01T03:18:52;101217.94;;;14.61;69.13
49461;BME280;35355;49.198;-0.368;2023-05-01T03:21:18;101217.41;;;14.59;69.43
49461;BME280;35355;49.198;-0.368;2023-05-01T03:23:43;101223.41;;;14.61;69.03
49461;BME280;35355;49.198;-0.368;2023-05-01T03:26:08;101224.50;;;14.60;69.26
49461;BME280;35355;49.198;-0.368;2023-05-01T03:28:34;101220.94;;;14.59;69.41
49461;BME280;35355;49.198;-0.368;2023-05-01T03:30:59;101213.53;;;14.60;69.44
49461;BME280;35355;49.198;-0.368;2023-05-01T03:33:25;101216.28;;;14.60;69.45
49461;BME280;35355;49.198;-0.368;2023-05-01T03:36:09;101216.00;;;14.56;69.01
49461;BME280;35355;49.198;-0.368;2023-05-01T03:38:37;101216.28;;;14.60;69.26
49461;BME280;35355;49.198;-0.368;2023-05-01T03:41:02;101217.94;;;14.61;69.65
49461;BME280;35355;49.198;-0.368;2023-05-01T03:43:29;101215.75;;;14.63;69.83
49461;BME280;35355;49.198;-0.368;2023-05-01T03:45:55;101219.63;;;14.62;69.75
49461;BME280;35355;49.198;-0.368;2023-05-01T03:48:21;101222.91;;;14.64;69.88
49461;BME280;35355;49.198;-0.368;2023-05-01T03:50:47;101211.91;;;14.64;69.83
49461;BME280;35355;49.198;-0.368;2023-05-01T03:53:12;101212.72;;;14.64;70.02
49461;BME280;35355;49.198;-0.368;2023-05-01T03:55:38;101224.28;;;14.66;69.93
49461;BME280;35355;49.198;-0.368;2023-05-01T03:58:04;101222.34;;;14.67;69.84
49461;BME280;35355;49.198;-0.368;2023-05-01T04:00:31;101215.19;;;14.66;69.91
49461;BME280;35355;49.198;-0.368;2023-05-01T04:02:56;101220.69;;;14.66;70.07
49461;BME280;35355;49.198;-0.368;2023-05-01T04:05:21;101216.84;;;14.67;69.96
49461;BME280;35355;49.198;-0.368;2023-05-01T04:07:47;101215.75;;;14.68;70.07
49461;BME280;35355;49.198;-0.368;2023-05-01T04:10:12;101222.34;;;14.67;70.21
49461;BME280;35355;49.198;-0.368;2023-05-01T04:12:38;101220.69;;;14.66;70.09
49461;BME280;35355;49.198;-0.368;2023-05-01T04:15:03;101212.72;;;14.64;70.25
49461;BME280;35355;49.198;-0.368;2023-05-01T04:17:30;101210.81;;;14.65;70.30
49461;BME280;35355;49.198;-0.368;2023-05-01T04:19:56;101215.19;;;14.66;70.50
49461;BME280;35355;49.198;-0.368;2023-05-01T04:22:21;101220.69;;;14.66;70.57
49461;BME280;35355;49.198;-0.368;2023-05-01T04:24:47;101216.31;;;14.65;70.46
49461;BME280;35355;49.198;-0.368;2023-05-01T04:27:13;101218.78;;;14.61;70.53
49461;BME280;35355;49.198;-0.368;2023-05-01T04:29:38;101219.63;;;14.62;70.69
49461;BME280;35355;49.198;-0.368;2023-05-01T04:32:03;101211.91;;;14.59;70.90
49461;BME280;35355;49.198;-0.368;2023-05-01T04:34:29;101220.13;;;14.59;70.74
49461;BME280;35355;49.198;-0.368;2023-05-01T04:36:55;101214.91;;;14.57;70.89
49461;BME280;35355;49.198;-0.368;2023-05-01T04:39:22;101220.66;;;14.55;71.12
49461;BME280;35355;49.198;-0.368;2023-05-01T04:41:47;101217.38;;;14.53;71.13
49461;BME280;35355;49.198;-0.368;2023-05-01T04:44:13;101219.03;;;14.49;71.04
49461;BME280;35355;49.198;-0.368;2023-05-01T04:46:39;101220.16;;;14.48;71.01
49461;BME280;35355;49.198;-0.368;2023-05-01T04:49:04;101224.00;;;14.47;71.26
49461;BME280;35355;49.198;-0.368;2023-05-01T04:51:29;101226.72;;;14.47;71.28
49461;BME280;35355;49.198;-0.368;2023-05-01T04:53:55;101227.81;;;14.46;71.30
49461;BME280;35355;49.198;-0.368;2023-05-01T04:56:20;101224.00;;;14.47;71.31
49461;BME280;35355;49.198;-0.368;2023-05-01T04:58:46;101230.88;;;14.50;71.32
49461;BME280;35355;49.198;-0.368;2023-05-01T05:01:11;101230.88;;;14.50;71.46
49461;BME280;35355;49.198;-0.368;2023-05-01T05:03:36;101237.69;;;14.52;71.44
49461;BME280;35355;49.198;-0.368;2023-05-01T05:06:02;101234.94;;;14.52;71.58
49461;BME280;35355;49.198;-0.368;2023-05-01T05:08:28;101233.34;;;14.51;71.50
49461;BME280;35355;49.198;-0.368;2023-05-01T05:11:00;101240.19;;;14.49;71.27
49461;BME280;35355;49.198;-0.368;2023-05-01T05:13:26;101241.84;;;14.50;71.59
49461;BME280;35355;49.198;-0.368;2023-05-01T05:15:51;101241.00;;;14.49;71.95
49461;BME280;35355;49.198;-0.368;2023-05-01T05:18:17;101236.34;;;14.50;71.67
49461;BME280;35355;49.198;-0.368;2023-05-01T05:20:42;101233.59;;;14.50;71.66
49461;BME280;35355;49.198;-0.368;2023-05-01T05:23:07;101244.84;;;14.53;71.54
49461;BME280;35355;49.198;-0.368;2023-05-01T05:25:33;101245.66;;;14.54;71.70
49461;BME280;35355;49.198;-0.368;2023-05-01T05:27:58;101239.91;;;14.55;71.78
49461;BME280;35355;49.198;-0.368;2023-05-01T05:30:25;101239.63;;;14.57;71.77
49461;BME280;35355;49.198;-0.368;2023-05-01T05:32:50;101241.28;;;14.58;71.77
49461;BME280;35355;49.198;-0.368;2023-05-01T05:35:16;101236.88;;;14.57;71.75
49461;BME280;35355;49.198;-0.368;2023-05-01T05:37:41;101247.84;;;14.57;71.60
49461;BME280;35355;49.198;-0.368;2023-05-01T05:40:07;101244.84;;;14.53;71.72
49461;BME280;35355;49.198;-0.368;2023-05-01T05:42:33;101245.13;;;14.52;71.70
49461;BME280;35355;49.198;-0.368;2023-05-01T05:44:58;101242.66;;;14.50;71.74
49461;BME280;35355;49.198;-0.368;2023-05-01T05:47:24;101250.91;;;14.50;71.93
49461;BME280;35355;49.198;-0.368;2023-05-01T05:49:49;101252.28;;;14.53;71.60
49461;BME280;35355;49.198;-0.368;2023-05-01T05:52:15;101251.16;;;14.54;71.67
49461;BME280;35355;49.198;-0.368;2023-05-01T05:54:40;101254.47;;;14.56;71.78
49461;BME280;35355;49.198;-0.368;2023-05-01T05:57:05;101259.13;;;14.55;71.65
49461;BME280;35355;49.198;-0.368;2023-05-01T05:59:31;101259.13;;;14.55;71.83
49461;BME280;35355;49.198;-0.368;2023-05-01T06:01:56;101255.28;;;14.56;71.66
49461;BME280;35355;49.198;-0.368;2023-05-01T06:04:22;101260.78;;;14.56;71.64
49461;BME280;35355;49.198;-0.368;2023-05-01T06:06:47;101262.72;;;14.56;71.47
49461;BME280;35355;49.198;-0.368;2023-05-01T06:09:13;101271.22;;;14.60;71.45
49461;BME280;35355;49.198;-0.368;2023-05-01T06:11:39;101265.19;;;14.63;71.32
49461;BME280;35355;49.198;-0.368;2023-05-01T06:14:04;101267.41;;;14.71;71.45
49461;BME280;35355;49.198;-0.368;2023-05-01T06:16:30;101272.88;;;14.81;71.40
49461;BME280;35355;49.198;-0.368;2023-05-01T06:18:55;101274.53;;;14.93;71.17
49461;BME280;35355;49.198;-0.368;2023-05-01T06:21:21;101284.94;;;15.01;70.98
49461;BME280;35355;49.198;-0.368;2023-05-01T06:23:46;101282.19;;;15.06;70.75
49461;BME280;35355;49.198;-0.368;2023-05-01T06:26:12;101286.53;;;15.17;70.53
49461;BME280;35355;49.198;-0.368;2023-05-01T06:28:37;101286.50;;;15.33;70.51
49461;BME280;35355;49.198;-0.368;2023-05-01T06:31:02;101295.50;;;15.54;70.28
49461;BME280;35355;49.198;-0.368;2023-05-01T06:33:28;101305.31;;;15.70;69.88
49461;BME280;35355;49.198;-0.368;2023-05-01T06:35:54;101299.81;;;15.70;69.17
49461;BME280;35355;49.198;-0.368;2023-05-01T06:38:19;101300.44;;;15.57;69.22
49461;BME280;35355;49.198;-0.368;2023-05-01T06:40:47;101301.84;;;15.44;69.13
49461;BME280;35355;49.198;-0.368;2023-05-01T06:43:13;101304.34;;;15.35;69.00
49461;BME280;35355;49.198;-0.368;2023-05-01T06:45:38;101309.06;;;15.24;69.21
49461;BME280;35355;49.198;-0.368;2023-05-01T06:48:05;101306.34;;;15.14;69.08
49461;BME280;35355;49.198;-0.368;2023-05-01T06:50:30;101303.06;;;15.07;69.15
49461;BME280;35355;49.198;-0.368;2023-05-01T06:52:56;101309.69;;;15.01;69.07
49461;BME280;35355;49.198;-0.368;2023-05-01T06:55:22;101314.63;;;14.94;69.32
49461;BME280;35355;49.198;-0.368;2023-05-01T06:57:48;101318.78;;;14.86;69.17
49461;BME280;35355;49.198;-0.368;2023-05-01T07:00:14;101318.78;;;14.81;69.13
49461;BME280;35355;49.198;-0.368;2023-05-01T07:02:40;101309.97;;;14.79;69.12
49461;BME280;35355;49.198;-0.368;2023-05-01T07:05:06;101320.97;;;14.79;69.13
49461;BME280;35355;49.198;-0.368;2023-05-01T07:07:31;101317.69;;;14.77;69.06
49461;BME280;35355;49.198;-0.368;2023-05-01T07:09:56;101321.25;;;14.77;69.26
49461;BME280;35355;49.198;-0.368;2023-05-01T07:12:22;101321.53;;;14.81;69.49
49461;BME280;35355;49.198;-0.368;2023-05-01T07:14:47;101321.78;;;14.84;68.96
49461;BME280;35355;49.198;-0.368;2023-05-01T07:17:12;101327.00;;;14.86;68.46
49461;BME280;35355;49.198;-0.368;2023-05-01T07:19:38;101323.44;;;14.85;68.42
49461;BME280;35355;49.198;-0.368;2023-05-01T07:22:03;101333.88;;;14.83;68.42
49461;BME280;35355;49.198;-0.368;2023-05-01T07:24:29;101331.41;;;14.82;68.49
49461;BME280;35355;49.198;-0.368;2023-05-01T07:26:54;101324.00;;;14.82;68.22
49461;BME280;35355;49.198;-0.368;2023-05-01T07:29:20;101335.00;;;14.82;68.07
49461;BME280;35355;49.198;-0.368;2023-05-01T07:31:46;101332.25;;;14.82;68.02
49461;BME280;35355;49.198;-0.368;2023-05-01T07:34:12;101340.22;;;14.84;67.93
49461;BME280;35355;49.198;-0.368;2023-05-01T07:36:37;101333.59;;;14.85;68.05
49461;BME280;35355;49.198;-0.368;2023-05-01T07:39:03;101338.28;;;14.84;67.78
49461;BME280;35355;49.198;-0.368;2023-05-01T07:41:29;101338.84;;;14.81;67.49
49461;BME280;35355;49.198;-0.368;2023-05-01T07:43:57;101342.41;;;14.77;67.31
49461;BME280;35355;49.198;-0.368;2023-05-01T07:46:23;101344.88;;;14.73;67.25
49461;BME280;35355;49.198;-0.368;2023-05-01T07:48:48;101338.28;;;14.74;67.31
49461;BME280;35355;49.198;-0.368;2023-05-01T07:51:14;101337.75;;;14.77;67.10
49461;BME280;35355;49.198;-0.368;2023-05-01T07:53:39;101342.13;;;14.83;67.04
49461;BME280;35355;49.198;-0.368;2023-05-01T07:56:07;101338.53;;;14.88;66.68
49461;BME280;35355;49.198;-0.368;2023-05-01T07:58:33;101339.94;;;14.90;66.59
49461;BME280;35355;49.198;-0.368;2023-05-01T08:01:00;101344.59;;;14.95;66.25
49461;BME280;35355;49.198;-0.368;2023-05-01T08:03:27;101340.22;;;14.94;66.28
49461;BME280;35355;49.198;-0.368;2023-05-01T08:05:53;101342.13;;;14.94;65.98
49461;BME280;35355;49.198;-0.368;2023-05-01T08:08:18;101341.84;;;14.95;65.98
49461;BME280;35355;49.198;-0.368;2023-05-01T08:10:45;101344.88;;;14.94;65.88
49461;BME280;35355;49.198;-0.368;2023-05-01T08:13:11;101348.47;;;14.94;65.81
49461;BME280;35355;49.198;-0.368;2023-05-01T08:15:36;101350.94;;;14.96;66.00
49461;BME280;35355;49.198;-0.368;2023-05-01T08:18:03;101350.66;;;14.97;65.84
49461;BME280;35355;49.198;-0.368;2023-05-01T08:20:29;101343.50;;;14.96;65.76
49461;BME280;35355;49.198;-0.368;2023-05-01T08:22:54;101347.06;;;14.97;65.53
49461;BME280;35355;49.198;-0.368;2023-05-01T08:25:20;101349.25;;;15.00;65.23
49461;BME280;35355;49.198;-0.368;2023-05-01T08:27:45;101354.22;;;14.98;65.10
49461;BME280;35355;49.198;-0.368;2023-05-01T08:30:11;101350.09;;;14.95;65.24
49461;BME280;35355;49.198;-0.368;2023-05-01T08:32:36;101355.88;;;14.94;65.25
49461;BME280;35355;49.198;-0.368;2023-05-01T08:35:01;101365.22;;;14.93;65.40
49461;BME280;35355;49.198;-0.368;2023-05-01T08:37:27;101356.13;;;14.92;65.27
49461;BME280;35355;49.198;-0.368;2023-05-01T08:39:52;101364.94;;;14.94;65.37
49461;BME280;35355;49.198;-0.368;2023-05-01T08:42:18;101367.44;;;14.96;65.18
49461;BME280;35355;49.198;-0.368;2023-05-01T08:44:44;101360.28;;;14.95;65.20
49461;BME280;35355;49.198;-0.368;2023-05-01T08:49:40;101361.91;;;15.01;64.93
49461;BME280;35355;49.198;-0.368;2023-05-01T08:52:06;101361.34;;;15.04;64.88
49461;BME280;35355;49.198;-0.368;2023-05-01T08:54:32;101360.78;;;15.07;64.72
49461;BME280;35355;49.198;-0.368;2023-05-01T08:57:02;101361.38;;;15.09;64.50
49461;BME280;35355;49.198;-0.368;2023-05-01T08:59:30;101360.25;;;15.10;64.12
49461;BME280;35355;49.198;-0.368;2023-05-01T09:02:03;101359.97;;;15.12;64.10
49461;BME280;35355;49.198;-0.368;2023-05-01T09:04:35;101359.69;;;15.18;64.10
49461;BME280;35355;49.198;-0.368;2023-05-01T09:07:02;101358.56;;;15.30;63.47
49461;BME280;35355;49.198;-0.368;2023-05-01T09:09:29;101348.63;;;15.44;63.45
49461;BME280;35355;49.198;-0.368;2023-05-01T09:11:59;101359.03;;;15.57;63.18
49461;BME280;35355;49.198;-0.368;2023-05-01T09:14:26;101356.81;;;15.70;62.53
49461;BME280;35355;49.198;-0.368;2023-05-01T09:16:51;101359.53;;;15.80;62.14
49461;BME280;35355;49.198;-0.368;2023-05-01T09:19:18;101356.47;;;15.92;62.22
49461;BME280;35355;49.198;-0.368;2023-05-01T09:21:43;101361.91;;;16.02;62.05
49461;BME280;35355;49.198;-0.368;2023-05-01T09:24:08;101367.09;;;16.09;61.33
49461;BME280;35355;49.198;-0.368;2023-05-01T09:26:34;101363.78;;;16.12;61.28
49461;BME280;35355;49.198;-0.368;2023-05-01T09:29:03;101367.09;;;16.14;61.20
49461;BME280;35355;49.198;-0.368;2023-05-01T09:31:30;101367.63;;;16.16;61.06
49461;BME280;35355;49.198;-0.368;2023-05-01T09:34:04;101360.47;;;16.15;61.54
49461;BME280;35355;49.198;-0.368;2023-05-01T09:36:32;101368.69;;;16.20;61.01
49461;BME280;35355;49.198;-0.368;2023-05-01T09:38:59;101371.97;;;16.22;60.59
49461;BME280;35355;49.198;-0.368;2023-05-01T09:41:26;101380.22;;;16.27;60.90
49461;BME280;35355;49.198;-0.368;2023-05-01T09:44:00;101361.69;;;16.43;61.71
49461;BME280;35355;49.198;-0.368;2023-05-01T09:46:26;101363.72;;;16.62;60.72
49461;BME280;35355;49.198;-0.368;2023-05-01T09:48:59;101362.25;;;16.75;61.02
49461;BME280;35355;49.198;-0.368;2023-05-01T09:51:28;101359.97;;;16.87;62.66
49461;BME280;35355;49.198;-0.368;2023-05-01T09:53:58;101362.34;;;16.99;60.29
49461;BME280;35355;49.198;-0.368;2023-05-01T09:56:29;101361.47;;;17.04;60.16
49461;BME280;35355;49.198;-0.368;2023-05-01T09:58:58;101363.63;;;17.12;60.08
49461;BME280;35355;49.198;-0.368;2023-05-01T10:01:44;101362.16;;;17.19;60.61
49461;BME280;35355;49.198;-0.368;2023-05-01T10:04:10;101371.22;;;17.25;58.97
49461;BME280;35355;49.198;-0.368;2023-05-01T10:06:37;101377.00;;;17.24;58.64
49461;BME280;35355;49.198;-0.368;2023-05-01T10:09:04;101376.25;;;17.18;58.44
49461;BME280;35355;49.198;-0.368;2023-05-01T10:11:46;101384.03;;;17.11;59.28
49461;BME280;35355;49.198;-0.368;2023-05-01T10:14:12;101377.19;;;17.08;57.96
49461;BME280;35355;49.198;-0.368;2023-05-01T10:16:38;101376.09;;;17.04;58.26
49461;BME280;35355;49.198;-0.368;2023-05-01T10:19:04;101371.47;;;16.99;58.60
49461;BME280;35355;49.198;-0.368;2023-05-01T10:21:30;101376.44;;;16.97;58.56
49461;BME280;35355;49.198;-0.368;2023-05-01T10:24:00;101380.31;;;16.96;58.50
49461;BME280;35355;49.198;-0.368;2023-05-01T10:26:27;101377.59;;;16.91;58.55
49461;BME280;35355;49.198;-0.368;2023-05-01T10:28:54;101380.63;;;16.90;58.69
49461;BME280;35355;49.198;-0.368;2023-05-01T10:31:23;101387.00;;;16.85;58.45
49461;BME280;35355;49.198;-0.368;2023-05-01T10:33:48;101394.47;;;16.79;58.85
49461;BME280;35355;49.198;-0.368;2023-05-01T10:36:18;101394.25;;;16.71;58.99
49461;BME280;35355;49.198;-0.368;2023-05-01T10:38:45;101396.53;;;16.63;58.64
49461;BME280;35355;49.198;-0.368;2023-05-01T10:41:16;101410.63;;;16.57;58.72
49461;BME280;35355;49.198;-0.368;2023-05-01T10:43:42;101415.34;;;16.51;58.69
49461;BME280;35355;49.198;-0.368;2023-05-01T10:51:22;101414.88;;;16.39;59.67
49461;BME280;35355;49.198;-0.368;2023-05-01T10:54:34;101416.22;;;16.41;59.03
49461;BME280;35355;49.198;-0.368;2023-05-01T10:59:01;101408.22;;;16.45;59.15
49461;BME280;35355;49.198;-0.368;2023-05-01T11:01:46;101409.31;;;16.49;59.41
49461;BME280;35355;49.198;-0.368;2023-05-01T11:09:53;101407.03;;;16.56;59.58
49461;BME280;35355;49.198;-0.368;2023-05-01T11:15:10;101401.16;;;16.68;59.09
49461;BME280;35355;49.198;-0.368;2023-05-01T11:20:04;101408.84;;;16.76;59.24
49461;BME280;35355;49.198;-0.368;2023-05-01T11:22:31;101400.84;;;16.75;58.85
49461;BME280;35355;49.198;-0.368;2023-05-01T11:24:57;101409.66;;;16.77;59.00
49461;BME280;35355;49.198;-0.368;2023-05-01T11:27:22;101412.97;;;16.74;59.12
49461;BME280;35355;49.198;-0.368;2023-05-01T11:29:49;101413.03;;;16.69;59.16
49461;BME280;35355;49.198;-0.368;2023-05-01T11:32:17;101423.25;;;16.63;59.39
49461;BME280;35355;49.198;-0.368;2023-05-01T11:34:43;101421.09;;;16.60;59.50
49461;BME280;35355;49.198;-0.368;2023-05-01T11:37:08;101421.38;;;16.53;59.88
49461;BME280;35355;49.198;-0.368;2023-05-01T11:39:34;101419.22;;;16.50;59.94
49461;BME280;35355;49.198;-0.368;2023-05-01T11:42:08;101417.88;;;16.42;60.21
49461;BME280;35355;49.198;-0.368;2023-05-01T11:44:34;101414.88;;;16.39;60.09
49461;BME280;35355;49.198;-0.368;2023-05-01T11:46:59;101412.97;;;16.34;60.14
49461;BME280;35355;49.198;-0.368;2023-05-01T11:49:28;101418.78;;;16.27;60.35
49461;BME280;35355;49.198;-0.368;2023-05-01T11:51:56;101409.19;;;16.20;60.56
49461;BME280;35355;49.198;-0.368;2023-05-01T11:54:22;101413.34;;;16.17;60.77
49461;BME280;35355;49.198;-0.368;2023-05-01T11:56:57;101412.25;;;16.18;60.89
49461;BME280;35355;49.198;-0.368;2023-05-01T11:59:23;101405.03;;;16.27;60.98
49461;BME280;35355;49.198;-0.368;2023-05-01T12:01:50;101405.50;;;16.40;60.89
49461;BME280;35355;49.198;-0.368;2023-05-01T12:04:26;101404.34;;;16.51;60.84
49461;BME280;35355;49.198;-0.368;2023-05-01T12:06:52;101397.66;;;16.62;60.69
49461;BME280;35355;49.198;-0.368;2023-05-01T12:09:19;101389.81;;;16.75;60.66
49461;BME280;35355;49.198;-0.368;2023-05-01T12:11:46;101386.97;;;16.90;60.08
49461;BME280;35355;49.198;-0.368;2023-05-01T12:14:13;101390.41;;;17.06;60.04
49461;BME280;35355;49.198;-0.368;2023-05-01T12:16:39;101386.19;;;17.14;59.39
49461;BME280;35355;49.198;-0.368;2023-05-01T12:19:05;101380.94;;;17.17;59.26
49461;BME280;35355;49.198;-0.368;2023-05-01T12:21:31;101370.22;;;17.11;59.21
49461;BME280;35355;49.198;-0.368;2023-05-01T12:24:17;101390.41;;;17.06;59.70
49461;BME280;35355;49.198;-0.368;2023-05-01T12:26:43;101381.03;;;17.07;59.36
49461;BME280;35355;49.198;-0.368;2023-05-01T12:29:09;101378.03;;;17.04;59.42
49461;BME280;35355;49.198;-0.368;2023-05-01T12:31:35;101383.81;;;17.02;59.12
49461;BME280;35355;49.198;-0.368;2023-05-01T12:34:03;101386.88;;;17.00;59.41
49461;BME280;35355;49.198;-0.368;2023-05-01T12:36:30;101378.66;;;16.95;59.74
49461;BME280;35355;49.198;-0.368;2023-05-01T12:39:03;101391.34;;;16.96;60.11
49461;BME280;35355;49.198;-0.368;2023-05-01T12:41:45;101393.56;;;16.94;60.20
49461;BME280;35355;49.198;-0.368;2023-05-01T12:44:26;101382.88;;;16.88;60.57
49461;BME280;35355;49.198;-0.368;2023-05-01T12:46:58;101391.97;;;16.88;60.64
49461;BME280;35355;49.198;-0.368;2023-05-01T12:49:24;101385.88;;;16.86;61.03
49461;BME280;35355;49.198;-0.368;2023-05-01T12:51:52;101390.31;;;16.82;61.48
49461;BME280;35355;49.198;-0.368;2023-05-01T12:54:34;101403.56;;;16.80;61.77
49461;BME280;35355;49.198;-0.368;2023-05-01T12:57:06;101403.31;;;16.76;62.13
49461;BME280;35355;49.198;-0.368;2023-05-01T12:59:33;101403.91;;;16.73;62.52
49461;BME280;35355;49.198;-0.368;2023-05-01T13:02:00;101404.19;;;16.72;63.04
49461;BME280;35355;49.198;-0.368;2023-05-01T13:04:27;101405.28;;;16.71;63.61
49461;BME280;35355;49.198;-0.368;2023-05-01T13:06:53;101407.53;;;16.69;64.15
49461;BME280;35355;49.198;-0.368;2023-05-01T13:09:28;101398.47;;;16.63;63.88
49461;BME280;35355;49.198;-0.368;2023-05-01T13:12:04;101403.44;;;16.61;64.01
49461;BME280;35355;49.198;-0.368;2023-05-01T13:14:39;101404.00;;;16.58;64.22
49461;BME280;35355;49.198;-0.368;2023-05-01T13:17:06;101408.13;;;16.60;65.44
49461;BME280;35355;49.198;-0.368;2023-05-01T13:19:32;101425.22;;;16.62;65.71
49461;BME280;35355;49.198;-0.368;2023-05-01T13:21:58;101416.38;;;16.65;65.96
49461;BME280;35355;49.198;-0.368;2023-05-01T13:24:34;101414.44;;;16.66;65.22
49461;BME280;35355;49.198;-0.368;2023-05-01T13:27:01;101408.63;;;16.67;65.82
49461;BME280;35355;49.198;-0.368;2023-05-01T13:29:27;101415.50;;;16.70;66.15
49461;BME280;35355;49.198;-0.368;2023-05-01T13:31:54;101416.31;;;16.71;65.98
49461;BME280;35355;49.198;-0.368;2023-05-01T13:34:24;101414.13;;;16.73;65.80
49461;BME280;35355;49.198;-0.368;2023-05-01T13:36:53;101412.97;;;16.79;66.52
49461;BME280;35355;49.198;-0.368;2023-05-01T13:39:19;101411.78;;;16.90;66.61
49461;BME280;35355;49.198;-0.368;2023-05-01T13:41:48;101401.25;;;16.97;67.25
49461;BME280;35355;49.198;-0.368;2023-05-01T13:44:15;101406.94;;;17.11;67.00
49461;BME280;35355;49.198;-0.368;2023-05-01T13:46:41;101410.19;;;17.18;66.41
49461;BME280;35355;49.198;-0.368;2023-05-01T13:49:07;101407.44;;;17.18;66.23
49461;BME280;35355;49.198;-0.368;2023-05-01T13:51:33;101414.63;;;17.14;65.73
49461;BME280;35355;49.198;-0.368;2023-05-01T13:54:03;101411.31;;;17.12;65.61
49461;BME280;35355;49.198;-0.368;2023-05-01T13:56:29;101408.84;;;17.11;65.51
49461;BME280;35355;49.198;-0.368;2023-05-01T13:58:58;101405.56;;;17.09;65.15
49461;BME280;35355;49.198;-0.368;2023-05-01T14:01:24;101413.31;;;17.07;64.80
49461;BME280;35355;49.198;-0.368;2023-05-01T14:03:50;101417.22;;;17.00;64.02
49461;BME280;35355;49.198;-0.368;2023-05-01T14:06:17;101416.16;;;16.96;64.24
49461;BME280;35355;49.198;-0.368;2023-05-01T14:08:43;101404.59;;;16.94;64.07
49461;BME280;35355;49.198;-0.368;2023-05-01T14:11:09;101410.44;;;16.88;63.81
49461;BME280;35355;49.198;-0.368;2023-05-01T14:13:39;101406.31;;;16.80;63.53
49461;BME280;35355;49.198;-0.368;2023-05-01T14:16:09;101407.19;;;16.75;63.24
49461;BME280;35355;49.198;-0.368;2023-05-01T14:18:36;101415.75;;;16.74;63.19
49461;BME280;35355;49.198;-0.368;2023-05-01T14:21:07;101410.50;;;16.72;63.31
49461;BME280;35355;49.198;-0.368;2023-05-01T14:23:34;101413.81;;;16.74;62.92
49461;BME280;35355;49.198;-0.368;2023-05-01T14:25:59;101420.69;;;16.77;62.77
49461;BME280;35355;49.198;-0.368;2023-05-01T14:28:25;101410.78;;;16.76;62.58
49461;BME280;35355;49.198;-0.368;2023-05-01T14:30:51;101411.59;;;16.76;62.12
49461;BME280;35355;49.198;-0.368;2023-05-01T14:33:19;101410.50;;;16.77;62.36
49461;BME280;35355;49.198;-0.368;2023-05-01T14:35:49;101403.00;;;16.83;62.65
49461;BME280;35355;49.198;-0.368;2023-05-01T14:38:16;101393.63;;;16.89;62.77
49461;BME280;35355;49.198;-0.368;2023-05-01T14:40:43;101401.81;;;16.99;62.21
49461;BME280;35355;49.198;-0.368;2023-05-01T14:43:13;101395.69;;;17.03;62.29
49461;BME280;35355;49.198;-0.368;2023-05-01T14:45:41;101400.06;;;17.09;62.00
49461;BME280;35355;49.198;-0.368;2023-05-01T14:48:07;101402.22;;;17.12;61.54
49461;BME280;35355;49.198;-0.368;2023-05-01T14:50:35;101402.75;;;17.14;61.86
49461;BME280;35355;49.198;-0.368;2023-05-01T14:53:01;101391.72;;;17.14;61.38
49461;BME280;35355;49.198;-0.368;2023-05-01T14:55:28;101396.44;;;17.13;61.12